createdAt,value
2022-09-14T00:01:08.165Z,45.96
2022-09-14T00:02:11.641Z,45.41
2022-09-14T00:03:14.145Z,45.29
2022-09-14T00:04:17.942Z,45.06
2022-09-14T00:05:19.639Z,45.81
2022-09-14T00:06:21.824Z,45.79
2022-09-14T00:07:23.505Z,46.02
2022-09-14T00:08:25.176Z,45.63
2022-09-14T00:09:26.847Z,45.42
2022-09-14T00:10:28.854Z,45.88
2022-09-14T00:11:33.513Z,46.16
2022-09-14T00:12:35.148Z,46.45
2022-09-14T00:13:36.892Z,46.08
2022-09-14T00:14:39.044Z,46.18
2022-09-14T00:15:42.518Z,45.96
2022-09-14T00:16:44.667Z,46.03
2022-09-14T00:17:46.371Z,46.39
2022-09-14T00:19:06.359Z,46.54
2022-09-14T00:20:08.850Z,45.60
2022-09-14T00:21:12.420Z,46.06
2022-09-14T00:22:14.085Z,46.09
2022-09-14T00:23:15.741Z,45.66
2022-09-14T00:24:17.772Z,46.35
2022-09-14T00:25:19.420Z,45.83
2022-09-14T00:26:23.167Z,45.22
2022-09-14T00:27:24.860Z,46.01
2022-09-14T00:28:26.494Z,46.52
2022-09-14T00:29:28.689Z,46.08
2022-09-14T00:30:30.455Z,46.83
2022-09-14T00:31:34.899Z,47.25
2022-09-14T00:32:36.754Z,46.67
2022-09-14T00:33:38.622Z,47.14
2022-09-14T00:34:40.287Z,47.73
2022-09-14T00:35:42.440Z,47.80
2022-09-14T00:36:47.545Z,47.55
2022-09-14T00:37:51.166Z,47.74
2022-09-14T00:38:56.774Z,48.13
2022-09-14T00:39:58.545Z,48.11
2022-09-14T00:41:01.013Z,48.05
2022-09-14T00:42:05.540Z,47.65
2022-09-14T00:43:15.155Z,47.70
2022-09-14T00:44:16.750Z,47.88
2022-09-14T00:45:21.829Z,47.52
2022-09-14T00:46:25.387Z,48.33
2022-09-14T00:47:29.512Z,47.49
2022-09-14T00:48:31.243Z,47.28
2022-09-14T00:49:41.316Z,48.08
2022-09-14T00:50:43.330Z,48.68
2022-09-14T00:51:55.980Z,49.21
2022-09-14T00:52:57.640Z,49.13
2022-09-14T00:54:02.456Z,49.18
2022-09-14T00:55:09.345Z,49.30
2022-09-14T00:56:11.153Z,48.57
2022-09-14T00:57:14.432Z,47.89
2022-09-14T00:58:16.157Z,48.60
2022-09-14T00:59:23.207Z,48.40
2022-09-14T01:00:28.086Z,48.93
2022-09-14T01:01:29.795Z,49.65
2022-09-14T01:02:31.745Z,48.33
2022-09-14T01:03:33.600Z,48.81
2022-09-14T01:04:36.732Z,49.11
2022-09-14T01:05:54.027Z,49.94
2022-09-14T01:07:16.240Z,49.91
2022-09-14T01:08:23.906Z,49.90
2022-09-14T01:09:38.300Z,49.19
2022-09-14T01:11:04.484Z,50.47
2022-09-14T01:12:15.790Z,50.28
2022-09-14T01:13:29.039Z,50.26
2022-09-14T01:14:44.944Z,50.18
2022-09-14T01:16:43.944Z,50.88
2022-09-14T01:18:04.603Z,50.74
2022-09-14T01:19:45.651Z,51.00
2022-09-14T01:21:20.676Z,51.59
2022-09-14T01:22:28.248Z,52.04
2022-09-14T01:23:36.416Z,51.78
2022-09-14T01:24:48.120Z,51.37
2022-09-14T01:26:01.686Z,51.12
2022-09-14T01:27:06.319Z,51.53
2022-09-14T01:28:23.940Z,51.87
2022-09-14T01:29:40.755Z,51.53
2022-09-14T01:30:43.715Z,52.02
2022-09-14T01:32:04.094Z,52.55
2022-09-14T01:33:11.752Z,52.01
2022-09-14T01:34:31.843Z,52.63
2022-09-14T01:35:42.764Z,52.40
2022-09-14T01:36:49.226Z,52.46
2022-09-14T01:38:03.314Z,52.25
2022-09-14T01:39:07.047Z,52.54
2022-09-14T01:40:33.491Z,52.37
2022-09-14T01:41:36.455Z,52.74
2022-09-14T01:42:42.987Z,52.93
2022-09-14T01:43:50.049Z,53.06
2022-09-14T01:44:56.738Z,52.08
2022-09-14T01:46:06.658Z,51.85
2022-09-14T01:47:22.250Z,52.25
2022-09-14T01:48:32.003Z,52.00
2022-09-14T01:49:41.533Z,51.93
2022-09-14T01:50:56.920Z,52.58
2022-09-14T01:52:04.082Z,52.41
2022-09-14T01:53:17.868Z,53.24
2022-09-14T01:54:30.127Z,53.26
2022-09-14T01:55:54.386Z,52.93
2022-09-14T01:57:00.261Z,53.43
2022-09-14T01:58:09.454Z,53.64
2022-09-14T01:59:16.793Z,52.80
2022-09-14T02:00:21.241Z,52.44
2022-09-14T02:01:37.956Z,51.76
2022-09-14T02:02:44.906Z,52.79
2022-09-14T02:03:55.773Z,52.39
2022-09-14T02:05:21.948Z,52.92
2022-09-14T02:06:36.108Z,52.59
2022-09-14T02:07:38.864Z,52.56
2022-09-14T02:08:41.313Z,52.32
2022-09-14T02:09:43.802Z,52.11
2022-09-14T02:10:45.606Z,52.64
2022-09-14T02:11:47.570Z,52.72
2022-09-14T02:12:49.292Z,52.69
2022-09-14T02:13:51.091Z,52.53
2022-09-14T02:14:54.382Z,52.77
2022-09-14T02:15:56.342Z,54.24
2022-09-14T02:16:58.590Z,53.45
2022-09-14T02:18:00.263Z,52.81
2022-09-14T02:19:02.591Z,53.43
2022-09-14T02:20:08.342Z,53.51
2022-09-14T02:21:18.362Z,53.44
2022-09-14T02:22:20.113Z,53.42
2022-09-14T02:23:22.381Z,53.69
2022-09-14T02:24:24.111Z,53.39
2022-09-14T02:25:25.816Z,53.68
2022-09-14T02:26:28.415Z,53.24
2022-09-14T02:27:30.059Z,53.88
2022-09-14T02:28:31.791Z,53.20
2022-09-14T02:29:34.031Z,53.21
2022-09-14T02:30:50.006Z,52.59
2022-09-14T02:32:07.009Z,53.22
2022-09-14T02:33:21.157Z,53.40
2022-09-14T02:34:44.656Z,52.69
2022-09-14T02:35:52.200Z,53.02
2022-09-14T02:37:08.846Z,53.40
2022-09-14T02:38:16.215Z,53.16
2022-09-14T02:39:31.378Z,53.00
2022-09-14T02:40:35.832Z,53.90
2022-09-14T02:41:48.959Z,53.85
2022-09-14T02:42:50.973Z,53.04
2022-09-14T02:44:04.858Z,53.35
2022-09-14T02:45:55.813Z,54.83
2022-09-14T02:47:21.318Z,54.45
2022-09-14T02:48:28.608Z,55.39
2022-09-14T02:49:44.675Z,54.37
2022-09-14T02:50:49.940Z,53.96
2022-09-14T02:52:23.198Z,54.53
2022-09-14T02:53:33.869Z,55.64
2022-09-14T02:54:50.642Z,55.18
2022-09-14T02:55:57.504Z,55.52
2022-09-14T02:57:03.907Z,54.73
2022-09-14T02:58:11.525Z,54.96
2022-09-14T02:59:13.216Z,55.39
2022-09-14T03:00:15.090Z,56.30
2022-09-14T03:01:19.448Z,56.33
2022-09-14T03:02:21.901Z,56.29
2022-09-14T03:03:23.604Z,55.59
2022-09-14T03:04:25.384Z,56.40
2022-09-14T03:05:27.649Z,56.70
2022-09-14T03:06:29.350Z,56.05
2022-09-14T03:07:31.031Z,56.71
2022-09-14T03:08:33.281Z,57.09
2022-09-14T03:09:35.060Z,57.28
2022-09-14T03:10:37.724Z,56.98
2022-09-14T03:11:39.377Z,57.10
2022-09-14T03:12:41.259Z,55.89
2022-09-14T03:13:42.930Z,55.86
2022-09-14T03:14:44.621Z,56.36
2022-09-14T03:15:46.703Z,57.31
2022-09-14T03:16:48.438Z,57.56
2022-09-14T03:17:51.165Z,57.22
2022-09-14T03:18:52.833Z,56.70
2022-09-14T03:19:54.885Z,56.98
2022-09-14T03:21:04.277Z,56.32
2022-09-14T03:22:06.095Z,56.66
2022-09-14T03:23:09.245Z,57.00
2022-09-14T03:24:11.225Z,56.71
2022-09-14T03:25:14.224Z,57.17
2022-09-14T03:26:19.158Z,56.47
2022-09-14T03:27:20.785Z,55.97
2022-09-14T03:28:22.454Z,56.14
2022-09-14T03:29:24.138Z,56.06
2022-09-14T03:30:27.929Z,56.71
2022-09-14T03:31:29.687Z,55.54
2022-09-14T03:32:32.470Z,55.11
2022-09-14T03:33:34.585Z,56.05
2022-09-14T03:34:36.265Z,55.59
2022-09-14T03:35:37.930Z,55.86
2022-09-14T03:36:39.635Z,55.81
2022-09-14T03:37:42.703Z,55.86
2022-09-14T03:38:52.563Z,55.30
2022-09-14T03:39:54.399Z,55.20
2022-09-14T03:40:59.888Z,55.44
2022-09-14T03:42:01.561Z,55.66
2022-09-14T03:43:03.244Z,55.33
2022-09-14T03:44:04.958Z,56.63
2022-09-14T03:45:07.301Z,56.64
2022-09-14T03:46:15.101Z,56.71
2022-09-14T03:47:16.828Z,55.57
2022-09-14T03:48:18.602Z,56.01
2022-09-14T03:49:20.259Z,55.55
2022-09-14T03:50:21.918Z,55.81
2022-09-14T03:51:24.146Z,56.82
2022-09-14T03:52:25.789Z,56.99
2022-09-14T03:53:27.857Z,56.46
2022-09-14T03:54:29.656Z,56.19
2022-09-14T03:55:31.313Z,56.78
2022-09-14T03:56:33.048Z,57.02
2022-09-14T03:57:34.918Z,56.99
2022-09-14T03:58:37.311Z,55.90
2022-09-14T03:59:43.469Z,57.13
2022-09-14T04:00:45.857Z,57.16
2022-09-14T04:01:47.994Z,56.48
2022-09-14T04:02:50.284Z,57.02
2022-09-14T04:03:52.383Z,56.60
2022-09-14T04:04:54.041Z,56.52
2022-09-14T04:05:56.669Z,56.53
2022-09-14T04:06:58.325Z,57.27
2022-09-14T04:08:00.031Z,57.53
2022-09-14T04:09:01.834Z,57.39
2022-09-14T04:10:05.756Z,57.30
2022-09-14T04:11:10.065Z,56.77
2022-09-14T04:12:11.824Z,56.55
2022-09-14T04:13:13.494Z,57.40
2022-09-14T04:14:15.734Z,57.56
2022-09-14T04:15:17.530Z,57.96
2022-09-14T04:16:21.196Z,57.14
2022-09-14T04:17:25.362Z,57.38
2022-09-14T04:18:27.268Z,57.47
2022-09-14T04:19:28.915Z,58.21
2022-09-14T04:20:30.602Z,58.09
2022-09-14T04:21:32.889Z,57.66
2022-09-14T04:22:34.785Z,58.44
2022-09-14T04:23:56.635Z,58.74
2022-09-14T04:24:58.527Z,58.42
2022-09-14T04:26:00.596Z,58.40
2022-09-14T04:27:02.261Z,57.48
2022-09-14T04:28:19.654Z,56.81
2022-09-14T04:29:22.440Z,56.90
2022-09-14T04:30:24.248Z,57.01
2022-09-14T04:31:26.388Z,58.04
2022-09-14T04:32:33.564Z,58.59
2022-09-14T04:33:37.068Z,57.34
2022-09-14T04:34:38.683Z,55.43
2022-09-14T04:35:40.372Z,54.79
2022-09-14T04:36:42.498Z,54.65
2022-09-14T04:37:44.164Z,53.45
2022-09-14T04:38:46.769Z,52.78
2022-09-14T04:39:48.475Z,54.60
2022-09-14T04:40:50.271Z,53.20
2022-09-14T04:41:52.149Z,52.72
2022-09-14T04:42:53.802Z,53.25
2022-09-14T04:43:56.785Z,51.53
2022-09-14T04:44:58.452Z,51.42
2022-09-14T04:46:08.852Z,49.52
2022-09-14T04:47:10.576Z,48.40
2022-09-14T04:48:12.357Z,49.36
2022-09-14T04:49:18.971Z,48.57
2022-09-14T04:50:20.741Z,47.39
2022-09-14T04:51:25.409Z,48.43
2022-09-14T04:52:27.128Z,48.84
2022-09-14T04:53:28.784Z,47.63
2022-09-14T04:54:30.465Z,49.25
2022-09-14T04:55:32.131Z,47.36
2022-09-14T04:56:37.068Z,46.41
2022-09-14T04:57:38.828Z,45.84
2022-09-14T04:58:51.608Z,46.63
2022-09-14T04:59:53.604Z,47.16
2022-09-14T05:01:06.747Z,47.84
2022-09-14T05:02:08.510Z,46.48
2022-09-14T05:03:10.328Z,44.80
2022-09-14T05:04:12.524Z,45.11
2022-09-14T05:05:14.474Z,43.06
2022-09-14T05:06:22.118Z,42.87
2022-09-14T05:07:23.795Z,43.30
2022-09-14T05:08:25.445Z,43.62
2022-09-14T05:09:27.084Z,43.68
2022-09-14T05:10:28.876Z,43.08
2022-09-14T05:11:33.695Z,42.69
2022-09-14T05:12:35.403Z,41.96
2022-09-14T05:13:37.091Z,41.11
2022-09-14T05:14:38.760Z,39.91
2022-09-14T05:15:40.465Z,39.79
2022-09-14T05:16:43.679Z,39.28
2022-09-14T05:17:45.351Z,37.74
2022-09-14T05:18:47.714Z,36.79
2022-09-14T05:19:49.358Z,37.64
2022-09-14T05:20:51.013Z,37.92
2022-09-14T05:21:52.714Z,38.02
2022-09-14T05:22:54.356Z,36.26
2022-09-14T05:23:58.724Z,37.67
2022-09-14T05:25:00.395Z,37.75
2022-09-14T05:26:02.111Z,36.88
2022-09-14T05:27:03.975Z,37.84
2022-09-14T05:28:05.631Z,36.21
2022-09-14T05:29:07.390Z,36.63
2022-09-14T05:30:09.657Z,35.71
2022-09-14T05:31:13.304Z,35.72
2022-09-14T05:32:15.046Z,34.32
2022-09-14T05:33:16.748Z,34.40
2022-09-14T05:34:18.510Z,34.22
2022-09-14T05:35:20.254Z,33.42
2022-09-14T05:36:22.346Z,33.11
2022-09-14T05:37:24.066Z,32.99
2022-09-14T05:38:25.748Z,34.67
2022-09-14T05:39:27.403Z,33.79
2022-09-14T05:40:29.159Z,33.16
2022-09-14T05:41:30.913Z,34.96
2022-09-14T05:42:32.556Z,33.64
2022-09-14T05:43:34.409Z,33.25
2022-09-14T05:44:36.044Z,34.16
2022-09-14T05:45:37.680Z,33.99
2022-09-14T05:46:40.461Z,33.51
2022-09-14T05:47:42.223Z,33.45
2022-09-14T05:48:44.254Z,33.57
2022-09-14T05:49:46.013Z,33.71
2022-09-14T05:50:48.202Z,34.57
2022-09-14T05:51:49.831Z,33.55
2022-09-14T05:52:51.682Z,33.48
2022-09-14T05:53:56.018Z,33.91
2022-09-14T05:54:57.680Z,35.77
2022-09-14T05:56:05.015Z,34.24
2022-09-14T05:57:06.884Z,34.57
2022-09-14T05:58:08.645Z,34.03
2022-09-14T05:59:10.987Z,33.46
2022-09-14T06:00:13.290Z,32.69
2022-09-14T06:01:21.029Z,32.75
2022-09-14T06:02:22.824Z,31.96
2022-09-14T06:03:25.410Z,31.80
2022-09-14T06:04:27.211Z,30.33
2022-09-14T06:05:29.033Z,31.54
2022-09-14T06:06:32.754Z,30.99
2022-09-14T06:07:34.457Z,29.66
2022-09-14T06:08:36.739Z,30.40
2022-09-14T06:09:38.387Z,30.14
2022-09-14T06:10:40.750Z,28.65
2022-09-14T06:11:42.615Z,28.71
2022-09-14T06:12:44.393Z,27.93
2022-09-14T06:13:47.017Z,27.95
2022-09-14T06:14:48.691Z,27.85
2022-09-14T06:15:50.346Z,26.70
2022-09-14T06:16:52.003Z,26.75
2022-09-14T06:17:53.681Z,27.40
2022-09-14T06:18:57.001Z,27.79
2022-09-14T06:20:03.511Z,26.12
2022-09-14T06:21:07.325Z,25.83
2022-09-14T06:22:08.984Z,25.81
2022-09-14T06:23:10.725Z,26.69
2022-09-14T06:24:12.860Z,25.93
2022-09-14T06:25:14.568Z,26.41
2022-09-14T06:26:16.773Z,26.49
2022-09-14T06:27:18.461Z,25.41
2022-09-14T06:28:20.118Z,27.20
2022-09-14T06:29:21.814Z,26.15
2022-09-14T06:30:23.509Z,26.34
2022-09-14T06:31:25.683Z,26.27
2022-09-14T06:32:30.924Z,25.57
2022-09-14T06:33:32.609Z,25.26
2022-09-14T06:34:34.245Z,25.31
2022-09-14T06:35:35.922Z,25.47
2022-09-14T06:36:37.618Z,24.69
2022-09-14T06:37:39.373Z,24.82
2022-09-14T06:38:42.118Z,25.36
2022-09-14T06:39:43.792Z,25.30
2022-09-14T06:40:59.442Z,25.54
2022-09-14T06:42:01.151Z,24.02
2022-09-14T06:43:03.053Z,23.51
2022-09-14T06:44:04.779Z,23.80
2022-09-14T06:45:07.104Z,25.18
2022-09-14T06:46:32.399Z,23.94
2022-09-14T06:47:34.510Z,23.94
2022-09-14T06:48:39.365Z,23.78
2022-09-14T06:49:41.077Z,24.46
2022-09-14T06:50:42.737Z,24.58
2022-09-14T06:51:46.927Z,24.30
2022-09-14T06:52:48.645Z,23.97
2022-09-14T06:53:51.288Z,24.93
2022-09-14T06:54:52.938Z,23.87
2022-09-14T06:55:59.229Z,23.16
2022-09-14T06:57:00.886Z,22.60
2022-09-14T06:58:03.135Z,22.72
2022-09-14T06:59:06.500Z,24.45
2022-09-14T07:00:09.086Z,24.25
2022-09-14T07:01:13.056Z,24.90
2022-09-14T07:02:14.812Z,25.48
2022-09-14T07:03:16.587Z,24.60
2022-09-14T07:04:18.832Z,24.26
2022-09-14T07:05:22.412Z,23.67
2022-09-14T07:06:30.279Z,23.64
2022-09-14T07:07:31.989Z,24.38
2022-09-14T07:08:34.987Z,23.54
2022-09-14T07:09:37.797Z,24.00
2022-09-14T07:10:40.217Z,23.08
2022-09-14T07:11:42.919Z,21.41
2022-09-14T07:12:44.902Z,21.78
2022-09-14T07:13:48.729Z,22.33
2022-09-14T07:14:50.464Z,21.17
2022-09-14T07:15:52.205Z,21.73
2022-09-14T07:16:53.849Z,20.84
2022-09-14T07:17:55.803Z,20.79
2022-09-14T07:18:59.531Z,21.42
2022-09-14T07:20:01.692Z,21.15
2022-09-14T07:21:07.324Z,19.90
2022-09-14T07:22:08.979Z,21.28
2022-09-14T07:23:13.188Z,22.06
2022-09-14T07:24:17.929Z,20.03
2022-09-14T07:25:19.593Z,21.07
2022-09-14T07:26:32.433Z,20.01
2022-09-14T07:27:34.492Z,21.20
2022-09-14T07:28:37.419Z,19.88
2022-09-14T07:29:39.098Z,20.39
2022-09-14T07:30:41.683Z,21.25
2022-09-14T07:31:51.890Z,21.14
2022-09-14T07:32:54.328Z,20.91
2022-09-14T07:33:57.996Z,19.67
2022-09-14T07:34:59.649Z,21.48
2022-09-14T07:36:09.187Z,20.27
2022-09-14T07:37:10.870Z,19.78
2022-09-14T07:38:12.530Z,19.79
2022-09-14T07:39:17.434Z,21.23
2022-09-14T07:40:19.134Z,19.02
2022-09-14T07:41:23.544Z,19.14
2022-09-14T07:42:25.219Z,18.28
2022-09-14T07:43:28.560Z,18.25
2022-09-14T07:44:30.282Z,19.04
2022-09-14T07:45:32.283Z,19.90
2022-09-14T07:46:40.262Z,19.79
2022-09-14T07:47:41.952Z,19.14
2022-09-14T07:48:43.847Z,19.10
2022-09-14T07:49:45.665Z,19.09
2022-09-14T07:50:47.556Z,19.28
2022-09-14T07:51:49.325Z,19.30
2022-09-14T07:52:51.839Z,19.46
2022-09-14T07:53:54.065Z,19.38
2022-09-14T07:54:56.287Z,18.30
2022-09-14T07:56:02.215Z,18.88
2022-09-14T07:57:04.002Z,18.14
2022-09-14T07:58:05.937Z,18.81
2022-09-14T07:59:33.532Z,18.44
2022-09-14T08:00:29.464Z,19.55
2022-09-14T08:01:31.626Z,19.66
2022-09-14T08:02:34.776Z,19.77
2022-09-14T08:03:36.612Z,18.92
2022-09-14T08:04:41.049Z,19.71
2022-09-14T08:05:42.702Z,19.72
2022-09-14T08:06:44.504Z,18.48
2022-09-14T08:07:46.189Z,20.93
2022-09-14T08:08:49.919Z,21.00
2022-09-14T08:09:51.571Z,22.29
2022-09-14T08:10:53.313Z,20.44
2022-09-14T08:11:54.964Z,19.21
2022-09-14T08:12:56.717Z,20.38
2022-09-14T08:14:00.634Z,21.49
2022-09-14T08:15:02.289Z,19.95
2022-09-14T08:16:06.165Z,21.41
2022-09-14T08:17:08.134Z,20.63
2022-09-14T08:18:11.244Z,20.93
2022-09-14T08:19:17.295Z,20.52
2022-09-14T08:20:19.399Z,20.07
2022-09-14T08:21:21.359Z,19.42
2022-09-14T08:22:23.089Z,19.90
2022-09-14T08:23:25.529Z,20.28
2022-09-14T08:24:27.372Z,20.04
2022-09-14T08:25:29.181Z,19.10
2022-09-14T08:26:31.599Z,18.86
2022-09-14T08:27:33.302Z,17.75
2022-09-14T08:28:36.603Z,18.67
2022-09-14T08:29:39.725Z,17.49
2022-09-14T08:30:41.685Z,17.63
2022-09-14T08:31:45.815Z,18.05
2022-09-14T08:32:47.684Z,18.53
2022-09-14T08:33:51.843Z,17.26
2022-09-14T08:34:53.553Z,18.10
2022-09-14T08:35:57.901Z,18.00
2022-09-14T08:37:00.035Z,18.79
2022-09-14T08:38:01.699Z,17.75
2022-09-14T08:39:04.502Z,17.68
2022-09-14T08:40:06.661Z,16.74
2022-09-14T08:41:17.357Z,17.36
2022-09-14T08:42:21.009Z,16.55
2022-09-14T08:43:26.126Z,17.28
2022-09-14T08:44:40.708Z,18.17
2022-09-14T08:45:43.878Z,16.87
2022-09-14T08:46:53.944Z,17.31
2022-09-14T08:47:58.009Z,18.78
2022-09-14T08:49:01.777Z,19.29
2022-09-14T08:50:17.385Z,18.13
2022-09-14T08:51:19.323Z,17.74
2022-09-14T08:52:34.246Z,18.67
2022-09-14T08:53:39.613Z,17.88
2022-09-14T08:54:41.357Z,16.85
2022-09-14T08:55:49.075Z,17.37
2022-09-14T08:57:01.789Z,16.87
2022-09-14T08:58:53.815Z,18.27
2022-09-14T09:00:13.482Z,17.92
2022-09-14T09:01:33.765Z,17.62
2022-09-14T09:03:09.720Z,17.17
2022-09-14T09:04:11.374Z,18.12
2022-09-14T09:05:34.857Z,19.49
2022-09-14T09:07:01.246Z,18.47
2022-09-14T09:08:21.764Z,16.60
2022-09-14T09:09:34.844Z,17.27
2022-09-14T09:10:40.237Z,17.31
2022-09-14T09:11:44.875Z,16.60
2022-09-14T09:12:52.774Z,17.21
2022-09-14T09:13:56.196Z,18.34
2022-09-14T09:15:01.369Z,17.69
2022-09-14T09:16:06.855Z,17.84
2022-09-14T09:17:46.274Z,17.74
2022-09-14T09:18:51.845Z,16.37
2022-09-14T09:20:08.641Z,16.33
2022-09-14T09:21:18.289Z,16.00
2022-09-14T09:22:23.493Z,17.07
2022-09-14T09:23:28.352Z,15.53
2022-09-14T09:24:37.539Z,14.74
2022-09-14T09:25:59.524Z,16.37
2022-09-14T09:27:01.345Z,15.07
2022-09-14T09:28:12.971Z,16.16
2022-09-14T09:29:14.777Z,15.93
2022-09-14T09:30:17.445Z,17.22
2022-09-14T09:31:26.645Z,16.30
2022-09-14T09:32:28.356Z,16.45
2022-09-14T09:33:30.599Z,15.42
2022-09-14T09:34:35.012Z,14.92
2022-09-14T09:35:36.692Z,15.98
2022-09-14T09:36:41.816Z,15.74
2022-09-14T09:37:43.488Z,15.95
2022-09-14T09:38:45.193Z,14.81
2022-09-14T09:39:47.229Z,15.12
2022-09-14T09:40:54.197Z,15.83
2022-09-14T09:42:08.111Z,15.68
2022-09-14T09:43:24.443Z,15.12
2022-09-14T09:45:04.089Z,17.52
2022-09-14T09:46:08.101Z,15.45
2022-09-14T09:47:09.883Z,16.47
2022-09-14T09:48:11.890Z,15.11
2022-09-14T09:49:23.781Z,15.26
2022-09-14T09:50:26.389Z,15.70
2022-09-14T09:51:31.062Z,16.27
2022-09-14T09:52:33.247Z,15.76
2022-09-14T09:53:38.807Z,14.75
2022-09-14T09:54:43.302Z,15.84
2022-09-14T09:55:49.517Z,15.27
2022-09-14T09:57:01.153Z,15.41
2022-09-14T09:58:33.600Z,15.37
2022-09-14T09:59:46.547Z,14.53
2022-09-14T10:01:11.620Z,16.68
2022-09-14T10:02:31.839Z,15.92
2022-09-14T10:03:38.859Z,14.56
2022-09-14T10:04:58.765Z,14.81
2022-09-14T10:06:07.403Z,14.65
2022-09-14T10:07:21.497Z,16.09
2022-09-14T10:08:23.201Z,15.77
2022-09-14T10:09:27.748Z,15.19
2022-09-14T10:10:35.396Z,15.29
2022-09-14T10:11:38.378Z,14.74
2022-09-14T10:12:47.325Z,14.96
2022-09-14T10:13:49.052Z,16.40
2022-09-14T10:15:02.988Z,15.31
2022-09-14T10:16:17.661Z,15.10
2022-09-14T10:17:21.451Z,14.84
2022-09-14T10:18:30.719Z,15.20
2022-09-14T10:19:33.577Z,14.65
2022-09-14T10:20:56.295Z,15.47
2022-09-14T10:22:05.035Z,15.40
2022-09-14T10:23:18.736Z,15.75
2022-09-14T10:24:21.254Z,15.32
2022-09-14T10:25:26.433Z,14.93
2022-09-14T10:26:33.575Z,13.42
2022-09-14T10:27:46.186Z,14.10
2022-09-14T10:28:49.949Z,14.50
2022-09-14T10:29:56.028Z,15.64
2022-09-14T10:31:12.862Z,17.00
2022-09-14T10:32:25.597Z,14.64
2022-09-14T10:33:27.614Z,14.51
2022-09-14T10:34:29.457Z,14.01
2022-09-14T10:35:57.745Z,14.58
2022-09-14T10:37:29.664Z,15.27
2022-09-14T10:38:32.153Z,15.28
2022-09-14T10:39:46.272Z,14.04
2022-09-14T10:40:58.064Z,14.25
2022-09-14T10:42:27.591Z,15.54
2022-09-14T10:44:10.878Z,14.39
2022-09-14T10:45:28.359Z,14.15
2022-09-14T10:46:36.384Z,13.56
2022-09-14T10:47:45.788Z,14.13
2022-09-14T10:48:53.704Z,13.23
2022-09-14T10:50:01.284Z,14.47
2022-09-14T10:51:21.220Z,13.04
2022-09-14T10:53:06.968Z,14.10
2022-09-14T10:54:27.219Z,14.10
2022-09-14T10:55:51.518Z,13.95
2022-09-14T10:57:13.215Z,14.92
2022-09-14T10:58:21.202Z,13.92
2022-09-14T10:59:51.034Z,13.87
2022-09-14T11:01:14.966Z,14.14
2022-09-14T11:02:22.390Z,14.49
2022-09-14T11:03:36.117Z,14.69
2022-09-14T11:04:58.662Z,14.97
2022-09-14T11:06:00.314Z,16.46
2022-09-14T11:07:16.815Z,14.76
2022-09-14T11:08:30.672Z,16.31
2022-09-14T11:09:38.602Z,14.73
2022-09-14T11:11:14.018Z,14.75
2022-09-14T11:12:31.429Z,15.77
2022-09-14T11:13:33.037Z,15.39
2022-09-14T11:14:51.776Z,14.93
2022-09-14T11:16:18.677Z,15.33
2022-09-14T11:17:46.744Z,16.38
2022-09-14T11:18:51.644Z,16.07
2022-09-14T11:20:32.181Z,15.44
2022-09-14T11:21:49.115Z,17.40
2022-09-14T11:23:16.214Z,16.51
2022-09-14T11:24:22.820Z,16.61
2022-09-14T11:25:47.076Z,16.74
2022-09-14T11:27:08.353Z,16.32
2022-09-14T11:28:25.733Z,16.60
2022-09-14T11:29:40.195Z,16.89
2022-09-14T11:31:28.735Z,16.39
2022-09-14T11:32:42.403Z,16.80
2022-09-14T11:34:01.549Z,15.96
2022-09-14T11:35:10.985Z,17.25
2022-09-14T11:36:22.012Z,16.85
2022-09-14T11:37:51.856Z,16.10
2022-09-14T11:39:04.678Z,16.29
2022-09-14T11:40:15.821Z,17.10
2022-09-14T11:41:20.597Z,16.07
2022-09-14T11:42:30.166Z,15.94
2022-09-14T11:43:47.144Z,15.54
2022-09-14T11:45:16.298Z,16.01
2022-09-14T11:46:24.632Z,14.97
2022-09-14T11:47:27.389Z,15.09
2022-09-14T11:48:43.213Z,15.13
2022-09-14T11:50:24.424Z,16.20
2022-09-14T11:51:42.083Z,15.69
2022-09-14T11:52:44.007Z,18.09
2022-09-14T11:53:46.686Z,17.74
2022-09-14T11:54:50.339Z,16.50
2022-09-14T11:55:52.394Z,16.49
2022-09-14T11:56:58.913Z,16.52
2022-09-14T11:58:04.087Z,16.03
2022-09-14T11:59:08.016Z,15.70
2022-09-14T12:00:33.492Z,15.66
2022-09-14T12:01:39.784Z,16.06
2022-09-14T12:02:49.295Z,15.40
2022-09-14T12:03:57.565Z,16.38
2022-09-14T12:05:05.158Z,16.13
2022-09-14T12:06:30.089Z,15.74
2022-09-14T12:07:46.705Z,16.24
2022-09-14T12:08:48.411Z,16.62
2022-09-14T12:09:51.628Z,15.06
2022-09-14T12:11:26.953Z,16.11
2022-09-14T12:12:31.374Z,15.69
2022-09-14T12:13:33.150Z,16.11
2022-09-14T12:14:36.752Z,16.10
2022-09-14T12:15:41.232Z,16.85
2022-09-14T12:17:37.857Z,16.90
2022-09-14T12:18:40.287Z,16.92
2022-09-14T12:19:43.593Z,16.38
2022-09-14T12:20:50.607Z,17.08
2022-09-14T12:21:52.291Z,16.72
2022-09-14T12:23:07.747Z,17.08
2022-09-14T12:24:15.201Z,18.51
2022-09-14T12:25:19.923Z,18.22
2022-09-14T12:26:21.607Z,18.12
2022-09-14T12:27:23.786Z,18.81
2022-09-14T12:28:40.236Z,18.47
2022-09-14T12:29:41.879Z,18.06
2022-09-14T12:30:43.979Z,18.53
2022-09-14T12:31:47.529Z,18.37
2022-09-14T12:32:49.361Z,20.38
2022-09-14T12:34:17.107Z,19.46
2022-09-14T12:35:40.453Z,18.94
2022-09-14T12:36:42.496Z,19.29
2022-09-14T12:37:44.204Z,20.51
2022-09-14T12:38:55.359Z,19.84
2022-09-14T12:40:34.495Z,21.47
2022-09-14T12:41:36.251Z,19.79
2022-09-14T12:42:37.983Z,20.73
2022-09-14T12:43:39.680Z,19.03
2022-09-14T12:44:43.433Z,19.84
2022-09-14T12:46:00.036Z,19.53
2022-09-14T12:47:25.091Z,20.56
2022-09-14T12:48:52.585Z,19.42
2022-09-14T12:50:04.631Z,19.54
2022-09-14T12:51:06.396Z,20.19
2022-09-14T12:52:19.892Z,19.95
2022-09-14T12:53:31.955Z,23.12
2022-09-14T12:54:57.038Z,20.25
2022-09-14T12:56:20.478Z,21.17
2022-09-14T12:57:28.536Z,20.57
2022-09-14T12:58:49.278Z,20.13
2022-09-14T13:00:14.617Z,19.46
2022-09-14T13:01:29.545Z,19.72
2022-09-14T13:02:34.069Z,18.91
2022-09-14T13:03:43.454Z,19.21
2022-09-14T13:04:48.044Z,19.53
2022-09-14T13:05:51.167Z,20.24
2022-09-14T13:06:55.599Z,19.38
2022-09-14T13:07:57.521Z,20.53
2022-09-14T13:08:59.958Z,19.55
2022-09-14T13:10:03.663Z,19.57
2022-09-14T13:11:06.869Z,20.22
2022-09-14T13:12:11.723Z,18.83
2022-09-14T13:13:26.033Z,18.92
2022-09-14T13:14:31.829Z,17.49
2022-09-14T13:15:38.201Z,17.21
2022-09-14T13:16:44.825Z,17.87
2022-09-14T13:18:07.347Z,19.15
2022-09-14T13:19:30.118Z,18.94
2022-09-14T13:20:34.791Z,19.64
2022-09-14T13:21:47.277Z,20.54
2022-09-14T13:22:49.248Z,19.20
2022-09-14T13:23:51.533Z,19.45
2022-09-14T13:24:53.872Z,19.69
2022-09-14T13:25:56.154Z,20.29
2022-09-14T13:27:01.085Z,19.13
2022-09-14T13:28:06.411Z,19.81
2022-09-14T13:29:08.382Z,20.23
2022-09-14T13:30:26.002Z,19.90
2022-09-14T13:31:35.707Z,20.11
2022-09-14T13:32:43.029Z,19.69
2022-09-14T13:33:50.730Z,20.26
2022-09-14T13:34:53.057Z,19.55
2022-09-14T13:35:58.130Z,19.13
2022-09-14T13:37:00.001Z,19.77
2022-09-14T13:38:09.058Z,20.47
2022-09-14T13:39:26.280Z,18.96
2022-09-14T13:40:30.169Z,19.13
2022-09-14T13:41:32.518Z,18.57
2022-09-14T13:42:34.782Z,19.55
2022-09-14T13:43:37.240Z,20.56
2022-09-14T13:44:50.371Z,19.54
2022-09-14T13:45:52.574Z,18.83
2022-09-14T13:46:57.844Z,19.40
2022-09-14T13:47:59.733Z,19.59
2022-09-14T13:49:01.497Z,19.46
2022-09-14T13:50:03.704Z,19.97
2022-09-14T13:51:06.300Z,20.27
2022-09-14T13:53:00.760Z,20.24
2022-09-14T13:54:18.506Z,20.68
2022-09-14T13:55:42.264Z,20.00
2022-09-14T13:56:44.014Z,20.29
2022-09-14T13:58:04.594Z,20.17
2022-09-14T13:59:12.171Z,19.66
2022-09-14T14:00:23.056Z,19.77
2022-09-14T14:01:28.693Z,20.08
2022-09-14T14:02:33.109Z,19.87
2022-09-14T14:03:47.355Z,20.15
2022-09-14T14:04:49.033Z,19.66
2022-09-14T14:05:51.015Z,19.63
2022-09-14T14:07:06.399Z,19.47
2022-09-14T14:08:28.320Z,19.41
2022-09-14T14:09:50.932Z,19.49
2022-09-14T14:10:54.150Z,20.12
2022-09-14T14:11:56.466Z,19.75
2022-09-14T14:12:59.531Z,20.42
2022-09-14T14:14:21.613Z,19.39
2022-09-14T14:15:23.273Z,19.90
2022-09-14T14:16:29.049Z,19.67
2022-09-14T14:17:33.684Z,20.35
2022-09-14T14:18:35.319Z,19.80
2022-09-14T14:19:37.033Z,18.69
2022-09-14T14:20:39.321Z,19.05
2022-09-14T14:21:41.059Z,19.20
2022-09-14T14:22:59.593Z,19.52
2022-09-14T14:24:27.962Z,19.32
2022-09-14T14:25:45.762Z,19.44
2022-09-14T14:26:50.525Z,19.55